createdAt,value
2023-03-05T00:01:38.422Z,98499.46
2023-03-05T00:04:08.284Z,98502.80
2023-03-05T00:06:37.639Z,98508.06
2023-03-05T00:09:05.877Z,98509.32
2023-03-05T00:11:38.334Z,98515.63
2023-03-05T00:14:06.891Z,98516.68
2023-03-05T00:16:34.999Z,98521.08
2023-03-05T00:19:05.663Z,98522.52
2023-03-05T00:21:36.540Z,98528.08
2023-03-05T00:24:11.799Z,98529.58
2023-03-05T00:26:42.422Z,98527.79
2023-03-05T00:29:11.693Z,98524.63
2023-03-05T00:31:44.412Z,98529.08
2023-03-05T00:34:14.108Z,98532.97
2023-03-05T00:36:43.279Z,98533.05
2023-03-05T00:39:12.302Z,98534.62
2023-03-05T00:41:40.587Z,98540.52
2023-03-05T00:45:53.461Z,98534.00
2023-03-05T00:48:21.941Z,98543.58
2023-03-05T00:50:49.005Z,98549.58
2023-03-05T00:53:15.775Z,98552.83
2023-03-05T00:55:42.357Z,98553.67
2023-03-05T00:58:09.416Z,98560.92
2023-03-05T01:00:36.098Z,98561.97
2023-03-05T01:03:04.064Z,98566.25
2023-03-05T01:05:31.114Z,98568.27
2023-03-05T01:07:58.888Z,98570.87
2023-03-05T01:10:31.755Z,98572.13
2023-03-05T01:13:00.941Z,98576.30
2023-03-05T01:15:28.313Z,98575.80
2023-03-05T01:17:55.045Z,98577.03
2023-03-05T01:20:21.873Z,98579.44
2023-03-05T01:22:49.042Z,98581.81
2023-03-05T01:25:16.121Z,98580.23
2023-03-05T01:27:42.781Z,98582.05
2023-03-05T01:30:12.718Z,98584.44
2023-03-05T01:32:40.457Z,98585.40
2023-03-05T01:35:07.938Z,98586.02
2023-03-05T01:37:35.913Z,98589.61
2023-03-05T01:40:02.837Z,98589.70
2023-03-05T01:42:34.380Z,98593.06
2023-03-05T01:45:14.465Z,98590.92
2023-03-05T01:47:41.136Z,98588.96
2023-03-05T01:50:19.323Z,98592.90
2023-03-05T01:52:50.050Z,98596.98
2023-03-05T01:55:22.516Z,98597.99
2023-03-05T01:57:51.630Z,98597.41
2023-03-05T02:00:20.621Z,98600.52
2023-03-05T02:02:49.607Z,98596.80
2023-03-05T02:05:26.508Z,98601.88
2023-03-05T02:07:55.099Z,98609.59
2023-03-05T02:10:29.758Z,98612.95
2023-03-05T02:12:58.365Z,98614.42
2023-03-05T02:15:25.050Z,98618.98
2023-03-05T02:17:51.669Z,98616.95
2023-03-05T02:20:28.603Z,98620.23
2023-03-05T02:22:55.613Z,98621.42
2023-03-05T02:25:25.813Z,98627.91
2023-03-05T02:28:11.074Z,98623.55
2023-03-05T02:30:41.013Z,98629.38
2023-03-05T02:33:07.956Z,98632.78
2023-03-05T02:35:35.320Z,98635.30
2023-03-05T02:38:03.271Z,98634.73
2023-03-05T02:40:29.887Z,98639.96
2023-03-05T02:42:56.465Z,98646.50
2023-03-05T02:45:23.576Z,98646.67
2023-03-05T02:47:50.510Z,98645.20
2023-03-05T02:50:17.393Z,98644.41
2023-03-05T02:52:44.672Z,98640.88
2023-03-05T02:55:14.905Z,98643.45
2023-03-05T02:57:42.154Z,98642.49
2023-03-05T03:00:09.909Z,98638.61
2023-03-05T03:02:38.328Z,98645.65
2023-03-05T03:05:07.532Z,98638.36
2023-03-05T03:07:35.997Z,98644.23
2023-03-05T03:10:05.000Z,98643.48
2023-03-05T03:12:31.631Z,98648.55
2023-03-05T03:15:00.216Z,98648.06
2023-03-05T03:17:36.302Z,98652.98
2023-03-05T03:20:07.550Z,98660.63
2023-03-05T03:22:34.083Z,98658.05
2023-03-05T03:25:00.908Z,98657.78
2023-03-05T03:27:27.826Z,98665.80
2023-03-05T03:29:54.445Z,98665.27
2023-03-05T03:32:21.685Z,98664.92
2023-03-05T03:34:48.456Z,98667.89
2023-03-05T03:37:15.545Z,98662.23
2023-03-05T03:39:42.173Z,98661.45
2023-03-05T03:42:09.345Z,98661.15
2023-03-05T03:44:36.087Z,98663.10
2023-03-05T03:47:03.512Z,98662.81
2023-03-05T03:49:30.796Z,98662.39
2023-03-05T03:51:58.160Z,98656.52
2023-03-05T03:54:24.842Z,98662.33
2023-03-05T03:56:52.028Z,98660.37
2023-03-05T03:59:19.100Z,98661.44
2023-03-05T04:01:45.963Z,98661.88
2023-03-05T04:04:12.671Z,98659.48
2023-03-05T04:06:39.988Z,98663.42
2023-03-05T04:09:13.103Z,98665.46
2023-03-05T04:11:39.813Z,98671.11
2023-03-05T04:14:07.172Z,98672.50
2023-03-05T04:16:36.834Z,98671.45
2023-03-05T04:19:03.535Z,98675.48
2023-03-05T04:21:30.205Z,98676.88
2023-03-05T04:23:57.112Z,98687.38
2023-03-05T04:26:23.896Z,98684.04
2023-03-05T04:28:50.438Z,98682.39
2023-03-05T04:31:17.036Z,98675.00
2023-03-05T04:33:46.868Z,98678.48
2023-03-05T04:36:13.499Z,98679.56
2023-03-05T04:38:46.040Z,98682.70
2023-03-05T04:41:12.742Z,98684.89
2023-03-05T04:43:39.350Z,98681.84
2023-03-05T04:46:06.061Z,98687.32
2023-03-05T04:48:32.872Z,98689.69
2023-03-05T04:51:00.278Z,98687.42
2023-03-05T04:53:27.340Z,98689.39
2023-03-05T04:56:00.852Z,98692.90
2023-03-05T04:58:28.152Z,98695.65
2023-03-05T05:01:00.431Z,98701.73
2023-03-05T05:03:27.096Z,98703.48
2023-03-05T05:05:55.495Z,98703.55
2023-03-05T05:08:22.692Z,98710.11
2023-03-05T05:11:01.349Z,98714.40
2023-03-05T05:13:30.401Z,98712.89
2023-03-05T05:15:57.315Z,98716.29
2023-03-05T05:18:24.620Z,98719.91
2023-03-05T05:20:52.643Z,98721.91
2023-03-05T05:23:19.419Z,98720.94
2023-03-05T05:25:46.460Z,98723.85
2023-03-05T05:28:13.715Z,98725.94
2023-03-05T05:30:40.762Z,98726.45
2023-03-05T05:33:08.015Z,98727.77
2023-03-05T05:35:38.755Z,98734.14
2023-03-05T05:38:05.483Z,98731.50
2023-03-05T05:40:33.552Z,98731.48
2023-03-05T05:43:00.251Z,98733.55
2023-03-05T05:45:26.915Z,98733.16
2023-03-05T05:47:53.998Z,98723.98
2023-03-05T05:50:26.770Z,98722.23
2023-03-05T05:52:53.848Z,98726.23
2023-03-05T05:55:20.708Z,98727.71
2023-03-05T05:58:07.092Z,98727.04
2023-03-05T06:00:33.836Z,98725.38
2023-03-05T06:03:00.450Z,98731.52
2023-03-05T06:05:27.084Z,98730.16
2023-03-05T06:07:54.186Z,98730.15
2023-03-05T06:10:21.044Z,98729.75
2023-03-05T06:12:48.098Z,98729.38
2023-03-05T06:15:14.973Z,98732.73
2023-03-05T06:17:42.213Z,98733.26
2023-03-05T06:20:11.915Z,98736.13
2023-03-05T06:22:38.982Z,98738.13
2023-03-05T06:25:07.161Z,98735.01
2023-03-05T06:27:34.866Z,98736.33
2023-03-05T06:30:01.844Z,98739.11
2023-03-05T06:32:29.118Z,98742.52
2023-03-05T06:34:55.767Z,98744.28
2023-03-05T06:37:22.448Z,98743.80
2023-03-05T06:39:49.292Z,98746.21
2023-03-05T06:42:18.792Z,98748.75
2023-03-05T06:44:47.258Z,98748.60
2023-03-05T06:47:14.953Z,98746.93
2023-03-05T06:49:42.383Z,98747.27
2023-03-05T06:52:12.185Z,98757.56
2023-03-05T06:54:39.701Z,98755.14
2023-03-05T06:57:06.693Z,98756.08
2023-03-05T06:59:33.624Z,98758.23
2023-03-05T07:02:00.607Z,98763.40
2023-03-05T07:04:27.623Z,98763.81
2023-03-05T07:06:55.250Z,98766.27
2023-03-05T07:09:22.202Z,98764.13
2023-03-05T07:11:49.720Z,98768.47
2023-03-05T07:14:17.210Z,98770.09
2023-03-05T07:16:44.888Z,98769.27
2023-03-05T07:19:14.884Z,98768.92
2023-03-05T07:21:41.667Z,98770.29
2023-03-05T07:24:13.713Z,98778.08
2023-03-05T07:26:42.173Z,98777.01
2023-03-05T07:29:09.349Z,98788.14
2023-03-05T07:31:38.745Z,98788.77
2023-03-05T07:34:05.910Z,98787.08
2023-03-05T07:36:34.383Z,98791.64
2023-03-05T07:39:05.303Z,98789.64
2023-03-05T07:41:35.069Z,98794.80
2023-03-05T07:44:02.849Z,98797.88
2023-03-05T07:46:32.199Z,98801.38
2023-03-05T07:48:59.670Z,98798.15
2023-03-05T07:51:26.672Z,98805.72
2023-03-05T07:53:57.125Z,98810.81
2023-03-05T07:56:31.376Z,98802.66
2023-03-05T07:58:59.145Z,98804.42
2023-03-05T08:01:26.487Z,98807.77
2023-03-05T08:03:53.124Z,98799.95
2023-03-05T08:06:20.432Z,98804.46
2023-03-05T08:08:48.296Z,98806.61
2023-03-05T08:11:16.584Z,98801.45
2023-03-05T08:13:44.860Z,98803.42
2023-03-05T08:16:20.294Z,98807.73
2023-03-05T08:18:54.876Z,98806.12
2023-03-05T08:21:26.448Z,98809.77
2023-03-05T08:23:53.247Z,98809.10
2023-03-05T08:26:21.415Z,98807.27
2023-03-05T08:28:48.429Z,98812.02
2023-03-05T08:31:20.934Z,98805.55
2023-03-05T08:33:51.649Z,98814.28
2023-03-05T08:36:18.776Z,98815.25
2023-03-05T08:38:47.988Z,98815.52
2023-03-05T08:41:15.854Z,98816.86
2023-03-05T08:43:42.750Z,98814.09
2023-03-05T08:46:11.454Z,98811.08
2023-03-05T08:48:38.668Z,98809.27
2023-03-05T08:51:09.571Z,98816.07
2023-03-05T08:53:39.112Z,98823.29
2023-03-05T08:56:18.034Z,98824.70
2023-03-05T08:58:48.338Z,98827.44
2023-03-05T09:01:17.829Z,98827.08
2023-03-05T09:03:46.015Z,98830.31
2023-03-05T09:06:12.950Z,98831.13
2023-03-05T09:08:42.042Z,98828.95
2023-03-05T09:11:09.598Z,98832.81
2023-03-05T09:13:36.582Z,98828.36
2023-03-05T09:16:07.650Z,98826.90
2023-03-05T09:18:36.188Z,98824.69
2023-03-05T09:21:06.954Z,98825.02
2023-03-05T09:23:33.854Z,98834.39
2023-03-05T09:26:01.781Z,98827.58
2023-03-05T09:28:30.491Z,98825.52
2023-03-05T09:30:57.193Z,98824.52
2023-03-05T09:33:24.306Z,98825.02
2023-03-05T09:35:51.115Z,98813.89
2023-03-05T09:38:18.797Z,98816.73
2023-03-05T09:41:08.092Z,98819.36
2023-03-05T09:44:01.208Z,98818.92
2023-03-05T09:46:43.280Z,98818.00
2023-03-05T09:49:33.264Z,98815.64
2023-03-05T09:52:14.837Z,98810.24
2023-03-05T09:54:43.070Z,98812.20
2023-03-05T09:57:21.608Z,98806.40
2023-03-05T10:00:11.675Z,98808.37
2023-03-05T10:02:48.721Z,98804.87
2023-03-05T10:05:29.194Z,98801.41
2023-03-05T10:08:00.824Z,98802.98
2023-03-05T10:10:39.241Z,98803.34
2023-03-05T10:13:18.233Z,98806.71
2023-03-05T10:16:26.132Z,98805.77
2023-03-05T10:19:02.400Z,98806.96
2023-03-05T10:21:50.838Z,98808.49
2023-03-05T10:24:47.687Z,98803.66
2023-03-05T10:27:21.981Z,98801.71
2023-03-05T10:30:38.511Z,98800.23
2023-03-05T10:33:20.116Z,98809.06
2023-03-05T10:36:05.620Z,98804.09
2023-03-05T10:38:52.827Z,98802.51
2023-03-05T10:41:39.418Z,98802.89
2023-03-05T10:44:39.282Z,98788.28
2023-03-05T10:47:29.031Z,98793.59
2023-03-05T10:49:57.752Z,98786.97
2023-03-05T10:52:34.771Z,98791.14
2023-03-05T10:55:13.253Z,98793.03
2023-03-05T10:57:40.890Z,98797.04
2023-03-05T11:00:22.867Z,98794.78
2023-03-05T11:03:01.128Z,98794.88
2023-03-05T11:05:38.077Z,98795.30
2023-03-05T11:08:33.653Z,98793.33
2023-03-05T11:11:09.741Z,98794.73
2023-03-05T11:13:47.778Z,98793.20
2023-03-05T11:16:19.909Z,98790.77
2023-03-05T11:18:48.169Z,98791.36
2023-03-05T11:21:20.190Z,98797.26
2023-03-05T11:24:08.517Z,98794.59
2023-03-05T11:26:35.843Z,98797.04
2023-03-05T11:29:04.264Z,98792.05
2023-03-05T11:31:32.107Z,98792.24
2023-03-05T11:34:01.562Z,98788.61
2023-03-05T11:36:56.104Z,98789.33
2023-03-05T11:39:23.327Z,98786.95
2023-03-05T11:41:54.161Z,98787.98
2023-03-05T11:44:46.232Z,98786.44
2023-03-05T11:47:27.971Z,98784.17
2023-03-05T11:50:02.989Z,98779.63
2023-03-05T11:52:33.854Z,98787.63
2023-03-05T11:55:12.878Z,98784.09
2023-03-05T11:57:52.352Z,98784.01
2023-03-05T12:00:23.921Z,98777.50
2023-03-05T12:02:52.613Z,98777.11
2023-03-05T12:05:19.535Z,98781.38
2023-03-05T12:07:51.324Z,98785.41
2023-03-05T12:10:23.515Z,98782.65
2023-03-05T12:13:02.976Z,98783.06
2023-03-05T12:15:59.254Z,98780.61
2023-03-05T12:18:38.022Z,98782.80
2023-03-05T12:21:26.100Z,98777.66
2023-03-05T12:24:01.266Z,98777.38
2023-03-05T12:27:03.643Z,98779.35
2023-03-05T12:29:37.032Z,98781.71
2023-03-05T12:32:21.493Z,98780.70
2023-03-05T12:34:50.122Z,98785.42
2023-03-05T12:37:21.249Z,98786.92
2023-03-05T12:40:08.885Z,98779.57
2023-03-05T12:42:37.788Z,98779.31
2023-03-05T12:45:23.246Z,98782.20
2023-03-05T12:47:56.613Z,98778.71
2023-03-05T12:50:28.906Z,98781.10
2023-03-05T12:53:11.412Z,98776.86
2023-03-05T12:55:45.482Z,98777.36
2023-03-05T12:58:28.679Z,98774.83
2023-03-05T13:04:00.391Z,98770.90
2023-03-05T13:06:27.686Z,98771.19
2023-03-05T13:09:07.908Z,98768.42
2023-03-05T13:11:37.135Z,98766.10
2023-03-05T13:14:04.325Z,98763.11
2023-03-05T13:16:41.015Z,98760.55
2023-03-05T13:19:15.487Z,98757.66
2023-03-05T13:21:42.772Z,98755.80
2023-03-05T13:24:17.460Z,98752.91
2023-03-05T13:26:48.240Z,98752.92
2023-03-05T13:29:21.432Z,98752.27
2023-03-05T13:32:05.104Z,98752.70
2023-03-05T13:34:47.333Z,98750.33
2023-03-05T13:37:20.719Z,98746.05
2023-03-05T13:39:58.077Z,98746.48
2023-03-05T13:42:28.031Z,98744.37
2023-03-05T13:45:03.774Z,98745.20
2023-03-05T13:47:32.188Z,98744.43
2023-03-05T13:50:01.442Z,98744.13
2023-03-05T13:52:35.371Z,98743.55
2023-03-05T13:55:12.064Z,98743.36
2023-03-05T13:57:43.377Z,98739.20
2023-03-05T14:00:33.615Z,98745.96
2023-03-05T14:03:26.009Z,98743.58
2023-03-05T14:05:53.347Z,98741.45
2023-03-05T14:08:22.022Z,98738.16
2023-03-05T14:10:49.192Z,98738.70
2023-03-05T14:13:21.145Z,98742.15
2023-03-05T14:16:23.930Z,98742.11
2023-03-05T14:18:58.122Z,98738.84
2023-03-05T14:21:25.385Z,98740.24
2023-03-05T14:23:54.177Z,98742.14
2023-03-05T14:26:34.238Z,98740.28
2023-03-05T14:29:03.135Z,98738.13
2023-03-05T14:31:36.621Z,98733.83
2023-03-05T14:34:04.983Z,98733.23
2023-03-05T14:36:33.831Z,98735.08
2023-03-05T14:39:01.767Z,98733.22
2023-03-05T14:41:37.483Z,98736.37
2023-03-05T14:44:15.087Z,98735.34
2023-03-05T14:46:48.882Z,98734.46
2023-03-05T14:49:17.128Z,98731.79
2023-03-05T14:51:44.460Z,98734.75
2023-03-05T14:54:20.074Z,98733.13
2023-03-05T14:56:49.048Z,98732.70
2023-03-05T14:59:17.294Z,98734.54
2023-03-05T15:01:44.393Z,98729.50
2023-03-05T15:04:20.358Z,98728.45
2023-03-05T15:06:50.133Z,98726.68
2023-03-05T15:09:19.142Z,98727.58
2023-03-05T15:11:48.338Z,98731.60
2023-03-05T15:14:15.330Z,98730.05
2023-03-05T15:16:43.086Z,98733.40
2023-03-05T15:19:12.659Z,98735.08
2023-03-05T15:21:40.398Z,98736.70
2023-03-05T15:24:14.236Z,98744.78
2023-03-05T15:26:41.040Z,98739.77
2023-03-05T15:29:07.639Z,98741.52
2023-03-05T15:31:37.748Z,98742.80
2023-03-05T15:34:04.853Z,98742.60
2023-03-05T15:36:33.583Z,98744.73
2023-03-05T15:39:00.796Z,98745.45
2023-03-05T15:41:27.677Z,98743.14
2023-03-05T15:43:54.580Z,98748.33
2023-03-05T15:46:21.386Z,98744.05
2023-03-05T15:48:49.576Z,98746.83
2023-03-05T15:51:17.293Z,98749.80
2023-03-05T15:53:45.867Z,98747.84
2023-03-05T15:56:18.603Z,98754.55
2023-03-05T15:58:45.374Z,98755.89
2023-03-05T16:01:12.297Z,98757.53
2023-03-05T16:03:39.436Z,98756.70
2023-03-05T16:06:07.742Z,98755.59
2023-03-05T16:08:35.422Z,98762.42
2023-03-05T16:11:02.576Z,98763.42
2023-03-05T16:13:31.927Z,98767.98
2023-03-05T16:16:01.844Z,98767.61
2023-03-05T16:18:35.514Z,98772.42
2023-03-05T16:21:03.108Z,98772.22
2023-03-05T16:23:33.647Z,98773.20
2023-03-05T16:26:00.473Z,98774.05
2023-03-05T16:28:27.758Z,98775.03
2023-03-05T16:30:56.190Z,98773.80
2023-03-05T16:33:26.587Z,98770.62
2023-03-05T16:36:20.234Z,98773.46
2023-03-05T16:38:51.796Z,98782.83
2023-03-05T16:41:21.111Z,98780.84
2023-03-05T16:43:51.209Z,98785.42
2023-03-05T16:46:18.043Z,98779.20
2023-03-05T16:48:46.017Z,98778.78
2023-03-05T16:51:13.736Z,98775.41
2023-03-05T16:53:42.943Z,98778.55
2023-03-05T16:56:10.714Z,98781.89
2023-03-05T16:58:40.060Z,98779.13
2023-03-05T17:01:11.586Z,98777.94
2023-03-05T17:03:40.788Z,98781.36
2023-03-05T17:06:15.330Z,98781.64
2023-03-05T17:08:43.181Z,98782.74
2023-03-05T17:11:10.098Z,98783.83
2023-03-05T17:13:39.347Z,98783.02
2023-03-05T17:16:08.743Z,98774.45
2023-03-05T17:18:39.317Z,98772.68
2023-03-05T17:21:06.926Z,98773.38
2023-03-05T17:23:34.942Z,98766.44
2023-03-05T17:26:07.470Z,98768.41
2023-03-05T17:28:34.751Z,98766.48
2023-03-05T17:31:03.361Z,98767.73
2023-03-05T17:33:31.636Z,98768.86
2023-03-05T17:35:59.866Z,98765.37
2023-03-05T17:38:26.729Z,98763.60
2023-03-05T17:40:54.751Z,98761.33
2023-03-05T17:43:22.149Z,98761.77
2023-03-05T17:45:49.271Z,98759.77
2023-03-05T17:48:17.423Z,98760.11
2023-03-05T17:50:45.853Z,98764.31
2023-03-05T17:53:13.499Z,98765.77
2023-03-05T17:55:43.015Z,98772.10
2023-03-05T17:58:10.865Z,98763.48
2023-03-05T18:00:37.810Z,98768.16
2023-03-05T18:03:06.368Z,98761.08
2023-03-05T18:05:33.503Z,98762.41
2023-03-05T18:08:03.347Z,98767.48
2023-03-05T18:10:31.318Z,98765.09
2023-03-05T18:12:58.421Z,98765.70
2023-03-05T18:15:27.164Z,98768.11
2023-03-05T18:17:54.669Z,98770.13
2023-03-05T18:20:31.007Z,98766.52
2023-03-05T18:22:59.274Z,98765.88
2023-03-05T18:25:30.303Z,98770.27
2023-03-05T18:28:09.413Z,98773.12
2023-03-05T18:30:37.529Z,98772.06
2023-03-05T18:33:08.625Z,98774.94
2023-03-05T18:35:36.269Z,98773.00
2023-03-05T18:38:03.404Z,98771.90
2023-03-05T18:40:32.017Z,98770.55
2023-03-05T18:43:01.393Z,98773.48
2023-03-05T18:45:28.512Z,98774.45
2023-03-05T18:47:56.349Z,98771.55
2023-03-05T18:50:24.971Z,98771.37
2023-03-05T18:52:52.340Z,98762.95
2023-03-05T18:55:21.662Z,98764.29
2023-03-05T18:57:48.711Z,98768.23
2023-03-05T19:00:17.679Z,98769.60
2023-03-05T19:02:44.829Z,98770.73
2023-03-05T19:05:13.177Z,98771.89
2023-03-05T19:07:40.018Z,98770.94
2023-03-05T19:10:09.104Z,98774.09
2023-03-05T19:12:44.645Z,98774.57
2023-03-05T19:15:12.823Z,98771.88
2023-03-05T19:17:40.066Z,98773.70
2023-03-05T19:20:07.534Z,98771.92
2023-03-05T19:22:37.707Z,98772.16
2023-03-05T19:25:05.782Z,98776.25
2023-03-05T19:27:33.968Z,98774.50
2023-03-05T19:30:00.652Z,98770.21
2023-03-05T19:32:27.614Z,98767.83
2023-03-05T19:34:55.698Z,98766.48
2023-03-05T19:37:22.452Z,98765.94
2023-03-05T19:39:49.286Z,98764.94
2023-03-05T19:42:15.869Z,98760.89
2023-03-05T19:44:42.708Z,98768.52
2023-03-05T19:47:09.679Z,98769.74
2023-03-05T19:49:36.883Z,98768.39
2023-03-05T19:52:05.650Z,98767.39
2023-03-05T19:54:32.778Z,98768.96
2023-03-05T19:56:59.679Z,98765.84
2023-03-05T19:59:26.576Z,98761.11
2023-03-05T20:01:53.316Z,98765.48
2023-03-05T20:04:22.125Z,98757.48
2023-03-05T20:06:49.541Z,98755.34
2023-03-05T20:09:20.294Z,98750.59
2023-03-05T20:11:47.269Z,98752.60
2023-03-05T20:14:14.793Z,98752.84
2023-03-05T20:16:42.724Z,98750.75
2023-03-05T20:19:15.625Z,98749.76
2023-03-05T20:21:42.769Z,98749.48
2023-03-05T20:24:12.843Z,98755.73
2023-03-05T20:26:41.792Z,98756.80
2023-03-05T20:29:08.659Z,98751.60
2023-03-05T20:31:37.518Z,98746.64
2023-03-05T20:34:05.827Z,98742.60
2023-03-05T20:36:36.194Z,98741.42
2023-03-05T20:39:04.172Z,98733.52
2023-03-05T20:41:33.672Z,98723.44
2023-03-05T20:44:02.828Z,98718.98
2023-03-05T20:46:35.145Z,98716.20
2023-03-05T20:49:02.968Z,98710.80
2023-03-05T20:51:35.280Z,98709.08
2023-03-05T20:54:05.262Z,98713.91
2023-03-05T20:56:32.567Z,98719.27
2023-03-05T20:59:02.276Z,98718.66
2023-03-05T21:01:30.165Z,98715.33
2023-03-05T21:04:01.024Z,98709.05
2023-03-05T21:06:28.464Z,98712.16
2023-03-05T21:08:55.456Z,98715.40
2023-03-05T21:11:22.363Z,98711.46
2023-03-05T21:13:49.209Z,98713.88
2023-03-05T21:16:21.742Z,98709.94
2023-03-05T21:18:50.257Z,98711.08
2023-03-05T21:21:17.193Z,98708.42
2023-03-05T21:23:44.205Z,98710.31
2023-03-05T21:26:13.009Z,98708.02
2023-03-05T21:28:40.398Z,98710.60
2023-03-05T21:31:16.445Z,98707.09
2023-03-05T21:33:44.103Z,98709.98
2023-03-05T21:36:10.948Z,98716.33
2023-03-05T21:38:38.264Z,98712.21
2023-03-05T21:41:08.988Z,98712.00
2023-03-05T21:43:36.168Z,98706.63
2023-03-05T21:46:03.611Z,98706.82
2023-03-05T21:48:30.777Z,98702.46
2023-03-05T21:50:57.942Z,98699.41
2023-03-05T21:53:27.841Z,98695.72
2023-03-05T21:56:20.248Z,98694.23
2023-03-05T21:58:51.754Z,98691.66
2023-03-05T22:01:20.669Z,98691.16
2023-03-05T22:03:47.513Z,98688.29
2023-03-05T22:06:16.174Z,98690.70
2023-03-05T22:08:42.825Z,98688.06
2023-03-05T22:11:17.416Z,98693.27
2023-03-05T22:13:44.603Z,98692.20
2023-03-05T22:16:13.753Z,98696.24
2023-03-05T22:18:40.533Z,98695.75
2023-03-05T22:21:15.613Z,98693.59
2023-03-05T22:23:42.299Z,98699.24
2023-03-05T22:26:09.450Z,98704.38
2023-03-05T22:28:38.312Z,98696.98
2023-03-05T22:31:05.369Z,98696.37
2023-03-05T22:33:32.032Z,98694.66
2023-03-05T22:35:58.829Z,98692.26
2023-03-05T22:38:26.303Z,98696.07
2023-03-05T22:40:55.180Z,98694.67
2023-03-05T22:43:21.939Z,98694.81
2023-03-05T22:45:48.650Z,98693.60
2023-03-05T22:48:15.351Z,98694.42
2023-03-05T22:50:43.334Z,98694.09
2023-03-05T22:53:10.820Z,98688.83
2023-03-05T22:55:40.858Z,98689.65
2023-03-05T22:58:07.793Z,98689.35
2023-03-05T23:00:35.157Z,98682.80
2023-03-05T23:03:01.970Z,98677.65
2023-03-05T23:05:30.006Z,98676.40
2023-03-05T23:07:56.949Z,98673.90
2023-03-05T23:10:28.024Z,98680.69
2023-03-05T23:12:55.958Z,98676.92
2023-03-05T23:15:34.169Z,98676.77
2023-03-05T23:18:01.605Z,98674.19
2023-03-05T23:20:31.279Z,98666.28
2023-03-05T23:22:58.038Z,98671.55
2023-03-05T23:25:26.769Z,98666.26
2023-03-05T23:27:54.118Z,98662.27
2023-03-05T23:30:28.375Z,98662.10
2023-03-05T23:33:01.338Z,98660.29
2023-03-05T23:35:35.111Z,98660.64
2023-03-05T23:38:05.985Z,98661.46
2023-03-05T23:40:35.994Z,98656.63
2023-03-05T23:43:02.735Z,98651.04
2023-03-05T23:45:29.559Z,98652.98
2023-03-05T23:47:57.906Z,98648.73
2023-03-05T23:50:27.906Z,98649.67
2023-03-05T23:52:55.128Z,98645.84
2023-03-05T23:55:27.660Z,98642.06
2023-03-05T23:57:58.066Z,98644.34
